Time;durP1;ratioP1;P1;durP2;ratioP2;P2;SDS_P1;SDS_P2;PMS_P1;PMS_P2;Temp;Humidity;BMP_temperature;BMP_pressure;BME280_temperature;BME280_humidity;BME280_pressure;Samples;Min_cycle;Max_cycle;Signal;HPM_P1;HPM_P2
2022/04/28 00:01:07;;;;;;;14.23;3.38;;;8.90;98.80;;;;;;5048763;28;20048;-73
2022/04/28 00:03:33;;;;;;;12.23;2.90;;;8.90;98.70;;;;;;5041718;28;20040;-74
2022/04/28 00:05:58;;;;;;;9.07;2.90;;;8.90;98.80;;;;;;5040675;28;20049;-73
2022/04/28 00:08:25;;;;;;;9.55;2.80;;;8.80;98.90;;;;;;5055434;28;20091;-73
2022/04/28 00:10:50;;;;;;;6.68;2.75;;;8.80;98.90;;;;;;5048640;28;20048;-73
2022/04/28 00:13:17;;;;;;;15.02;2.90;;;8.70;98.90;;;;;;5028802;28;20140;-73
2022/04/28 00:15:43;;;;;;;6.15;2.88;;;8.70;98.90;;;;;;5040386;28;20128;-73
2022/04/28 00:18:08;;;;;;;8.82;3.35;;;8.70;98.90;;;;;;5053511;28;20120;-73
2022/04/28 00:20:34;;;;;;;8.02;2.53;;;8.80;99.00;;;;;;5054982;28;20497;-73
2022/04/28 00:23:00;;;;;;;7.15;2.78;;;8.80;99.00;;;;;;5050136;28;20481;-73
2022/04/28 00:25:25;;;;;;;8.55;2.60;;;8.80;98.90;;;;;;5060478;28;20524;-73
2022/04/28 00:27:53;;;;;;;7.28;3.05;;;8.80;98.90;;;;;;5054207;28;20186;-72
2022/04/28 00:30:19;;;;;;;12.60;2.80;;;8.70;98.80;;;;;;5034820;28;20079;-73
2022/04/28 00:32:45;;;;;;;6.93;2.63;;;8.70;98.80;;;;;;5037674;28;20537;-73
2022/04/28 00:35:10;;;;;;;8.77;3.47;;;8.70;98.80;;;;;;5046767;28;20048;-73
2022/04/28 00:37:36;;;;;;;9.48;2.92;;;8.80;98.80;;;;;;5055105;28;20044;-73
2022/04/28 00:40:03;;;;;;;10.18;2.67;;;8.80;98.80;;;;;;5053455;28;20175;-73
2022/04/28 00:42:29;;;;;;;15.18;3.50;;;8.80;98.80;;;;;;5054903;28;20070;-73
2022/04/28 00:44:55;;;;;;;15.32;3.20;;;8.70;98.80;;;;;;5062351;28;20091;-74
2022/04/28 00:47:22;;;;;;;9.05;3.60;;;8.70;98.90;;;;;;5035105;28;20071;-74
2022/04/28 00:52:33;;;;;;;7.20;2.53;;;8.80;98.80;;;;;;5064842;28;20234;-73
2022/04/28 00:54:59;;;;;;;11.77;3.75;;;8.80;98.90;;;;;;5059172;28;20362;-74
2022/04/28 00:57:26;;;;;;;8.68;2.63;;;8.90;99.00;;;;;;5053653;28;20170;-73
2022/04/28 00:59:52;;;;;;;12.23;3.15;;;8.90;99.00;;;;;;5037245;28;21717;-73
2022/04/28 01:02:18;;;;;;;14.13;2.63;;;8.90;99.10;;;;;;5044634;28;20056;-73
2022/04/28 01:04:45;;;;;;;9.98;2.55;;;8.90;99.20;;;;;;5022845;28;20046;-73
2022/04/28 01:07:11;;;;;;;14.68;3.30;;;8.90;99.20;;;;;;5043635;28;20107;-73
2022/04/28 01:09:37;;;;;;;7.95;2.92;;;8.90;99.20;;;;;;5028630;28;20396;-73
2022/04/28 01:12:14;;;;;;;11.15;3.53;;;8.90;99.20;;;;;;5042314;28;20602;-73
2022/04/28 01:14:44;;;;;;;13.18;3.55;;;8.90;99.20;;;;;;5037458;28;20479;-73
2022/04/28 01:17:10;;;;;;;12.52;2.72;;;8.90;99.30;;;;;;5044605;28;20041;-73
2022/04/28 01:19:36;;;;;;;9.93;3.08;;;9.00;99.30;;;;;;5031070;28;20376;-73
2022/04/28 01:22:03;;;;;;;10.23;2.90;;;9.00;99.10;;;;;;5031450;28;20128;-73
2022/04/28 01:24:30;;;;;;;9.43;2.78;;;8.90;99.00;;;;;;5040928;28;20586;-74
2022/04/28 01:26:58;;;;;;;12.73;3.05;;;8.90;99.10;;;;;;5035391;28;21007;-73
2022/04/28 01:29:23;;;;;;;11.20;3.00;;;8.90;99.10;;;;;;5017753;28;20511;-73
2022/04/28 01:31:49;;;;;;;12.25;2.75;;;9.00;99.00;;;;;;5022167;28;20139;-74
2022/04/28 01:34:15;;;;;;;14.52;2.85;;;9.00;98.90;;;;;;5039754;28;20034;-73
2022/04/28 01:36:41;;;;;;;12.18;3.08;;;8.90;98.80;;;;;;5042277;28;20072;-73
2022/04/28 01:39:08;;;;;;;11.23;3.20;;;8.90;98.80;;;;;;5021503;28;20083;-73
2022/04/28 01:41:33;;;;;;;8.63;2.22;;;8.80;98.90;;;;;;5025987;28;20053;-74
2022/04/28 01:43:59;;;;;;;12.20;3.25;;;8.80;99.00;;;;;;5009060;28;20037;-74
2022/04/28 01:46:25;;;;;;;9.18;2.45;;;8.80;99.10;;;;;;5037603;28;20083;-74
2022/04/28 01:48:50;;;;;;;10.93;2.50;;;8.80;99.20;;;;;;5014430;28;20045;-74
2022/04/28 01:56:45;;;;;;;8.60;3.10;;;8.80;99.50;;;;;;5039803;28;20167;-74
2022/04/28 01:59:10;;;;;;;11.38;2.92;;;8.80;99.60;;;;;;5014563;28;20510;-74
2022/04/28 02:01:36;;;;;;;10.10;3.35;;;8.80;99.70;;;;;;5020812;28;20059;-73
2022/04/28 02:04:01;;;;;;;10.43;3.00;;;8.80;99.70;;;;;;5032167;28;20103;-74
2022/04/28 02:06:27;;;;;;;11.57;4.00;;;8.80;99.80;;;;;;5035709;28;20123;-75
2022/04/28 02:08:53;;;;;;;15.32;2.95;;;8.80;99.90;;;;;;5063686;28;20044;-74
2022/04/28 02:11:18;;;;;;;7.00;2.55;;;8.80;99.90;;;;;;5035879;28;20048;-74
2022/04/28 02:13:44;;;;;;;12.63;3.38;;;8.80;99.90;;;;;;5059358;28;20123;-74
2022/04/28 02:16:10;;;;;;;11.40;3.45;;;8.90;99.90;;;;;;5035611;28;20045;-74
2022/04/28 02:18:36;;;;;;;12.95;3.38;;;8.80;99.90;;;;;;5052669;28;20079;-74
2022/04/28 02:21:02;;;;;;;6.65;2.88;;;8.90;99.90;;;;;;5061377;28;20383;-74
2022/04/28 02:23:28;;;;;;;17.92;3.95;;;8.80;99.90;;;;;;5063580;28;20606;-74
2022/04/28 02:25:53;;;;;;;7.35;2.40;;;9.20;99.90;;;;;;5044590;28;20051;-74
2022/04/28 02:28:19;;;;;;;9.85;3.20;;;8.80;99.90;;;;;;5065080;28;20044;-74
2022/04/28 02:30:44;;;;;;;23.70;3.50;;;8.80;99.90;;;;;;5037407;28;20143;-74
2022/04/28 02:33:10;;;;;;;13.93;3.15;;;8.80;99.90;;;;;;5065890;28;20178;-74
2022/04/28 02:35:39;;;;;;;9.48;3.08;;;8.80;99.90;;;;;;5056223;28;20051;-74
2022/04/28 02:38:06;;;;;;;15.10;3.72;;;8.80;99.90;;;;;;5046436;28;20036;-74
2022/04/28 02:40:31;;;;;;;12.98;2.88;;;8.80;99.90;;;;;;5036944;28;20424;-75
2022/04/28 02:42:57;;;;;;;11.65;2.88;;;8.80;99.90;;;;;;5052056;28;20036;-73
2022/04/28 02:45:23;;;;;;;6.75;2.63;;;8.80;99.90;;;;;;5042341;28;20044;-73
2022/04/28 02:47:48;;;;;;;8.10;3.22;;;8.80;99.90;;;;;;5030507;28;20540;-73
2022/04/28 02:50:14;;;;;;;13.88;3.60;;;8.70;99.90;;;;;;5054876;28;20050;-73
2022/04/28 02:52:40;;;;;;;7.72;3.00;;;8.70;99.90;;;;;;5037107;28;20097;-73
2022/04/28 02:55:07;;;;;;;11.52;4.63;;;8.80;99.90;;;;;;5044995;28;20123;-73
2022/04/28 02:57:32;;;;;;;9.65;3.53;;;8.80;99.90;;;;;;5048799;28;20555;-73
2022/04/28 02:59:58;;;;;;;12.77;3.85;;;8.70;99.90;;;;;;5032554;28;20131;-73
2022/04/28 03:02:24;;;;;;;11.07;3.65;;;8.70;99.90;;;;;;5047581;28;20090;-73
2022/04/28 03:04:50;;;;;;;8.27;2.97;;;8.70;99.90;;;;;;5042198;28;20043;-73
2022/04/28 03:12:44;;;;;;;10.27;3.65;;;8.70;99.90;;;;;;5054088;28;20117;-74
2022/04/28 03:15:11;;;;;;;8.43;3.42;;;8.70;99.90;;;;;;5058445;28;20190;-73
2022/04/28 03:17:37;;;;;;;9.63;3.95;;;8.70;99.90;;;;;;5033052;28;20453;-73
2022/04/28 03:20:04;;;;;;;12.13;3.45;;;8.70;99.90;;;;;;5031912;28;20067;-73
2022/04/28 03:22:30;;;;;;;9.15;3.13;;;8.70;99.90;;;;;;5065599;28;20043;-74
2022/04/28 03:24:55;;;;;;;12.60;3.42;;;8.80;99.90;;;;;;5055651;28;20036;-74
2022/04/28 03:27:21;;;;;;;6.07;2.70;;;8.80;99.90;;;;;;5045413;28;20046;-73
2022/04/28 03:29:47;;;;;;;10.68;3.70;;;8.80;99.90;;;;;;5043186;28;20061;-74
2022/04/28 03:32:12;;;;;;;7.03;2.85;;;8.80;99.90;;;;;;5059136;28;20053;-74
2022/04/28 03:34:38;;;;;;;14.40;3.53;;;8.80;99.90;;;;;;5055261;28;20702;-74
2022/04/28 03:37:04;;;;;;;10.77;3.72;;;8.90;99.90;;;;;;5048892;28;20052;-74
2022/04/28 03:39:29;;;;;;;6.60;3.10;;;8.90;99.90;;;;;;5049422;28;20126;-74
2022/04/28 03:41:55;;;;;;;10.90;3.47;;;8.90;99.90;;;;;;5037929;28;20394;-74
2022/04/28 03:44:21;;;;;;;10.88;3.20;;;8.90;99.90;;;;;;5048432;28;20045;-73
2022/04/28 03:46:47;;;;;;;8.93;3.47;;;8.90;99.90;;;;;;5060945;28;20140;-74
2022/04/28 03:49:12;;;;;;;9.93;3.78;;;8.90;99.90;;;;;;5031320;28;20049;-74
2022/04/28 03:51:39;;;;;;;14.93;3.85;;;8.90;99.90;;;;;;5043773;28;20052;-74
2022/04/28 03:54:05;;;;;;;8.43;3.25;;;8.90;99.90;;;;;;5039073;28;20138;-74
2022/04/28 03:56:32;;;;;;;12.80;3.47;;;8.80;99.90;;;;;;5035807;28;20072;-73
2022/04/28 03:58:59;;;;;;;7.35;3.15;;;8.80;99.90;;;;;;5063666;28;20120;-74
2022/04/28 04:01:25;;;;;;;10.85;3.72;;;8.80;99.90;;;;;;5032315;28;20044;-73
2022/04/28 04:03:51;;;;;;;15.75;4.78;;;8.80;99.90;;;;;;5038184;28;20389;-74
2022/04/28 04:06:16;;;;;;;17.13;3.75;;;8.80;99.90;;;;;;5035610;28;20190;-74
2022/04/28 04:08:42;;;;;;;18.13;3.88;;;8.80;99.90;;;;;;5066264;28;20094;-74
2022/04/28 04:11:08;;;;;;;7.75;3.47;;;8.80;99.90;;;;;;5058151;28;20037;-74
2022/04/28 04:13:34;;;;;;;9.98;3.78;;;8.80;99.90;;;;;;5032869;28;20164;-74
2022/04/28 04:15:59;;;;;;;10.75;4.25;;;8.80;99.90;;;;;;5037393;28;20124;-74
2022/04/28 04:18:25;;;;;;;11.43;4.00;;;8.80;99.90;;;;;;5065414;28;20040;-73
2022/04/28 04:20:51;;;;;;;9.27;4.30;;;8.80;99.90;;;;;;5063767;28;20040;-74
2022/04/28 04:23:16;;;;;;;12.40;4.00;;;8.80;99.90;;;;;;5066376;28;20048;-74
2022/04/28 04:25:42;;;;;;;12.95;4.38;;;8.80;99.90;;;;;;5066385;28;20093;-74
2022/04/28 04:28:07;;;;;;;10.85;3.92;;;8.80;99.90;;;;;;5039055;28;20194;-74
2022/04/28 04:33:18;;;;;;;9.23;4.30;;;8.80;99.90;;;;;;5052368;28;20053;-74
2022/04/28 04:35:43;;;;;;;12.07;4.95;;;8.70;99.90;;;;;;5058638;28;20075;-74
2022/04/28 04:38:09;;;;;;;12.32;4.22;;;8.70;99.90;;;;;;5059360;28;20044;-75
2022/04/28 04:40:34;;;;;;;9.70;4.22;;;8.70;99.90;;;;;;5032665;28;20045;-75
2022/04/28 04:43:00;;;;;;;10.63;4.35;;;8.70;99.90;;;;;;5068160;28;20387;-74
2022/04/28 04:45:26;;;;;;;12.43;4.80;;;8.60;99.90;;;;;;5063517;28;20529;-74
2022/04/28 04:47:51;;;;;;;16.13;5.22;;;8.50;99.90;;;;;;5046000;28;20123;-74
2022/04/28 04:50:17;;;;;;;11.05;4.40;;;8.50;99.90;;;;;;5058525;28;20107;-74
2022/04/28 04:52:42;;;;;;;10.85;4.50;;;8.50;99.90;;;;;;5060434;28;20128;-74
2022/04/28 04:55:08;;;;;;;10.05;3.80;;;8.40;99.90;;;;;;5043381;28;20098;-74
2022/04/28 04:57:34;;;;;;;14.70;4.60;;;8.40;99.90;;;;;;5052780;28;20084;-75
2022/04/28 05:00:00;;;;;;;12.02;4.25;;;8.40;99.90;;;;;;5061918;28;20413;-75
2022/04/28 05:02:26;;;;;;;13.75;4.28;;;8.40;99.90;;;;;;5043342;28;20065;-75
2022/04/28 05:04:51;;;;;;;12.85;4.28;;;8.40;99.90;;;;;;5025945;28;20052;-74
2022/04/28 05:07:17;;;;;;;8.70;3.78;;;8.40;99.90;;;;;;5049659;28;20082;-74
2022/04/28 05:09:43;;;;;;;19.15;4.65;;;8.40;99.90;;;;;;5023538;28;20507;-74
2022/04/28 05:12:09;;;;;;;11.98;3.70;;;8.40;99.90;;;;;;5038012;28;20041;-74
2022/04/28 05:14:35;;;;;;;64.28;5.50;;;8.40;99.90;;;;;;5031363;28;20033;-75
2022/04/28 05:17:01;;;;;;;11.38;3.60;;;8.40;99.90;;;;;;5018370;28;20116;-74
2022/04/28 05:19:27;;;;;;;9.88;3.45;;;8.40;99.90;;;;;;5038987;28;20053;-74
2022/04/28 05:21:54;;;;;;;11.50;4.10;;;8.40;99.90;;;;;;5014608;28;20052;-73
2022/04/28 05:24:20;;;;;;;14.32;3.80;;;8.40;99.90;;;;;;5052113;28;20044;-74
2022/04/28 05:26:47;;;;;;;13.27;3.22;;;8.30;99.90;;;;;;5044084;28;20052;-74
2022/04/28 05:29:12;;;;;;;10.85;2.85;;;8.30;99.90;;;;;;5029924;28;20037;-75
2022/04/28 05:31:38;;;;;;;9.48;3.72;;;8.30;99.90;;;;;;5033011;28;20366;-73
2022/04/28 05:34:04;;;;;;;10.77;3.05;;;8.30;99.90;;;;;;5043195;28;20049;-73
2022/04/28 05:36:30;;;;;;;9.75;3.25;;;8.30;99.90;;;;;;5043296;28;20029;-73
2022/04/28 05:38:59;;;;;;;14.68;3.67;;;8.30;99.90;;;;;;5016677;28;20582;-74
2022/04/28 05:41:27;;;;;;;8.50;3.13;;;8.30;99.90;;;;;;5033964;28;20044;-74
2022/04/28 05:46:38;;;;;;;8.38;2.88;;;8.40;99.90;;;;;;5015193;28;20131;-73
2022/04/28 05:49:07;;;;;;;9.32;3.42;;;8.40;99.90;;;;;;5021277;28;20717;-74
2022/04/28 05:51:33;;;;;;;8.95;3.35;;;8.40;99.90;;;;;;5020982;28;20041;-74
2022/04/28 05:53:59;;;;;;;10.45;3.53;;;8.50;99.90;;;;;;5017065;28;20112;-74
2022/04/28 05:56:24;;;;;;;9.23;3.15;;;8.50;99.90;;;;;;5036399;28;20387;-74
2022/04/28 05:58:51;;;;;;;11.38;3.30;;;8.50;99.90;;;;;;5040018;28;20043;-73
2022/04/28 06:01:16;;;;;;;12.07;3.10;;;8.60;99.90;;;;;;5040966;28;20120;-73
2022/04/28 06:03:43;;;;;;;10.63;3.70;;;8.60;99.90;;;;;;5043030;28;20141;-73
2022/04/28 06:06:09;;;;;;;11.25;3.28;;;8.60;99.90;;;;;;5018779;28;20128;-74
2022/04/28 06:08:35;;;;;;;9.23;3.22;;;8.70;99.90;;;;;;5041490;28;20140;-73
2022/04/28 06:11:01;;;;;;;9.95;3.45;;;8.70;99.90;;;;;;5041328;28;20075;-74
2022/04/28 06:13:27;;;;;;;13.60;3.10;;;8.80;99.90;;;;;;5031095;28;20076;-74
2022/04/28 06:15:52;;;;;;;7.40;2.80;;;8.80;99.90;;;;;;5033114;28;20056;-73
2022/04/28 06:18:18;;;;;;;8.50;2.38;;;8.90;99.90;;;;;;5021490;28;20435;-73
2022/04/28 06:20:44;;;;;;;7.22;2.83;;;8.90;99.90;;;;;;5022055;28;20464;-73
2022/04/28 06:23:11;;;;;;;12.27;3.13;;;9.00;99.90;;;;;;5015276;28;20119;-74
2022/04/28 06:25:37;;;;;;;10.98;2.65;;;9.10;99.90;;;;;;5028841;28;20500;-74
2022/04/28 06:28:03;;;;;;;11.82;2.42;;;9.20;99.90;;;;;;5034279;28;20045;-74
2022/04/28 06:30:29;;;;;;;10.32;2.45;;;9.20;99.90;;;;;;5029688;28;20139;-72
2022/04/28 06:32:54;;;;;;;17.77;2.40;;;9.30;99.90;;;;;;5010086;28;20037;-73
2022/04/28 06:35:20;;;;;;;6.80;2.60;;;9.30;99.90;;;;;;5020766;28;20053;-73
2022/04/28 06:37:46;;;;;;;10.73;2.20;;;9.30;99.90;;;;;;5018953;28;20049;-73
2022/04/28 06:40:12;;;;;;;9.25;1.90;;;9.40;99.90;;;;;;5044010;28;20112;-72
2022/04/28 06:42:43;;;;;;;15.32;2.30;;;9.50;99.90;;;;;;5038641;28;20056;-73
2022/04/28 06:45:10;;;;;;;12.73;2.10;;;9.50;99.90;;;;;;5037288;28;20410;-73
2022/04/28 06:47:36;;;;;;;10.23;1.80;;;9.50;99.90;;;;;;5021582;28;20470;-74
2022/04/28 06:50:02;;;;;;;8.10;1.88;;;9.60;99.90;;;;;;5030656;28;20095;-74
2022/04/28 06:52:28;;;;;;;14.48;2.25;;;9.60;99.90;;;;;;5029373;28;20049;-73
2022/04/28 06:54:53;;;;;;;19.40;2.22;;;9.70;99.90;;;;;;5046974;28;20102;-73
2022/04/28 06:57:19;;;;;;;8.27;2.00;;;9.80;99.90;;;;;;5012708;28;20507;-73
2022/04/28 06:59:44;;;;;;;9.65;2.45;;;9.80;99.90;;;;;;5011470;28;20455;-73
2022/04/28 07:02:10;;;;;;;18.63;1.90;;;9.90;99.90;;;;;;5025182;28;20064;-73
2022/04/28 07:04:36;;;;;;;5.55;2.30;;;9.90;99.90;;;;;;5039627;28;20045;-73
2022/04/28 07:07:01;;;;;;;7.95;2.42;;;10.00;99.90;;;;;;5028511;28;20049;-74
2022/04/28 07:09:27;;;;;;;12.18;2.35;;;10.00;99.90;;;;;;5028957;28;20046;-73
2022/04/28 07:11:53;;;;;;;9.98;1.70;;;10.10;99.90;;;;;;5038176;28;20051;-74
2022/04/28 07:14:18;;;;;;;7.78;1.80;;;10.10;99.90;;;;;;5029654;28;20043;-73
2022/04/28 07:16:44;;;;;;;18.98;2.47;;;10.10;99.90;;;;;;5031354;28;20045;-73
2022/04/28 07:19:09;;;;;;;15.05;2.13;;;10.10;99.90;;;;;;5034794;28;20401;-73
2022/04/28 07:21:35;;;;;;;15.20;2.63;;;10.10;99.90;;;;;;5035626;28;20045;-73
2022/04/28 07:24:01;;;;;;;11.32;2.33;;;10.10;99.90;;;;;;5041252;28;20052;-73
2022/04/28 07:26:28;;;;;;;8.90;2.13;;;10.00;99.90;;;;;;5027302;28;20053;-73
2022/04/28 07:28:54;;;;;;;11.40;2.10;;;10.00;99.90;;;;;;5026993;28;20072;-73
2022/04/28 07:31:19;;;;;;;9.38;1.75;;;10.00;99.90;;;;;;5035218;28;20143;-74
2022/04/28 07:33:45;;;;;;;15.43;2.20;;;9.90;99.90;;;;;;5030834;28;20030;-72
2022/04/28 07:36:12;;;;;;;10.52;2.10;;;10.00;99.90;;;;;;5038195;28;20048;-73
2022/04/28 07:38:39;;;;;;;25.80;2.25;;;10.00;99.90;;;;;;5046240;28;20417;-76
2022/04/28 07:41:04;;;;;;;9.07;1.98;;;10.00;99.90;;;;;;5044470;28;20041;-73
2022/04/28 07:43:30;;;;;;;11.55;2.10;;;10.10;99.90;;;;;;5034677;28;20371;-72
2022/04/28 07:45:56;;;;;;;8.13;2.47;;;10.10;99.90;;;;;;5028149;28;20334;-72
2022/04/28 07:48:21;;;;;;;9.75;2.78;;;10.10;99.90;;;;;;5040617;28;20045;-73
2022/04/28 07:50:47;;;;;;;14.40;2.05;;;10.20;99.90;;;;;;5042815;28;20040;-73
2022/04/28 07:53:13;;;;;;;11.82;1.80;;;10.30;99.90;;;;;;5039670;28;20048;-73
2022/04/28 07:55:39;;;;;;;7.57;1.67;;;10.40;99.90;;;;;;5043840;28;20072;-74
2022/04/28 07:58:05;;;;;;;7.35;1.70;;;10.40;99.90;;;;;;5029553;28;20045;-74
2022/04/28 08:00:31;;;;;;;8.20;1.58;;;10.60;99.90;;;;;;5040053;28;20056;-73
2022/04/28 08:02:56;;;;;;;8.70;1.70;;;10.60;99.90;;;;;;5029663;28;20053;-73
2022/04/28 08:05:28;;;;;;;10.73;1.67;;;10.60;99.90;;;;;;5028447;28;20136;-73
2022/04/28 08:07:54;;;;;;;6.88;1.17;;;10.70;99.90;;;;;;5031925;28;20045;-73
2022/04/28 08:10:22;;;;;;;15.90;1.77;;;10.80;99.90;;;;;;5025453;28;20043;-73
2022/04/28 08:12:48;;;;;;;7.72;1.63;;;10.80;99.90;;;;;;5021766;28;20049;-74
2022/04/28 08:15:13;;;;;;;4.93;1.35;;;10.90;99.90;;;;;;5019666;28;20095;-72
2022/04/28 08:17:42;;;;;;;9.75;1.70;;;11.00;99.90;;;;;;5029469;28;20045;-73
2022/04/28 08:20:08;;;;;;;6.88;1.30;;;11.10;99.90;;;;;;5048798;28;20040;-74
2022/04/28 08:22:33;;;;;;;13.77;2.20;;;11.20;99.90;;;;;;5032316;28;20052;-72
2022/04/28 08:25:00;;;;;;;6.75;1.73;;;11.30;99.90;;;;;;5017804;28;20049;-73
2022/04/28 08:27:26;;;;;;;11.48;2.47;;;11.40;99.90;;;;;;5031836;28;20049;-73
2022/04/28 08:29:52;;;;;;;8.32;2.15;;;11.40;99.90;;;;;;5033324;28;20247;-73
2022/04/28 08:32:18;;;;;;;10.32;2.53;;;11.50;99.90;;;;;;5026738;28;20528;-72
2022/04/28 08:34:43;;;;;;;7.05;2.38;;;11.50;99.90;;;;;;5033840;28;20385;-72
2022/04/28 08:37:09;;;;;;;5.72;2.15;;;11.50;99.90;;;;;;5015247;28;20048;-72
2022/04/28 08:39:34;;;;;;;9.93;3.22;;;11.50;99.90;;;;;;5048206;28;20098;-72
2022/04/28 08:42:00;;;;;;;9.82;2.83;;;11.50;99.90;;;;;;5032385;28;20539;-73
2022/04/28 08:44:27;;;;;;;14.30;3.65;;;11.60;99.90;;;;;;5045619;28;20486;-73
2022/04/28 08:46:55;;;;;;;10.10;2.80;;;11.60;99.90;;;;;;5041605;28;20071;-74
2022/04/28 08:49:30;;;;;;;16.70;3.05;;;11.70;99.90;;;;;;5019801;28;20049;-74
2022/04/28 08:51:59;;;;;;;16.70;3.30;;;11.80;99.90;;;;;;5045958;28;20045;-75
2022/04/28 08:54:26;;;;;;;16.02;3.42;;;12.00;99.90;;;;;;5050989;28;20041;-74
2022/04/28 08:56:55;;;;;;;23.70;3.50;;;12.00;99.90;;;;;;5040421;28;20076;-74
2022/04/28 08:59:21;;;;;;;16.67;2.88;;;12.00;99.90;;;;;;5038864;28;20043;-74
2022/04/28 09:01:48;;;;;;;9.80;2.55;;;12.10;99.90;;;;;;5045258;28;20075;-74
2022/04/28 09:04:14;;;;;;;9.23;2.70;;;12.00;99.90;;;;;;5063449;28;20040;-75
2022/04/28 09:06:41;;;;;;;11.40;2.20;;;12.40;99.90;;;;;;5060689;28;20522;-75
2022/04/28 09:09:10;;;;;;;18.73;3.17;;;12.00;99.90;;;;;;5071438;28;20056;-75
2022/04/28 09:11:37;;;;;;;8.60;2.20;;;12.40;99.90;;;;;;5042799;28;20049;-74
2022/04/28 09:14:09;;;;;;;7.53;2.40;;;12.10;99.90;;;;;;5056529;28;20032;-75
2022/04/28 09:16:59;;;;;;;9.27;1.95;;;12.10;99.80;;;;;;5060653;28;20047;-74
2022/04/28 09:19:32;;;;;;;23.10;2.92;;;12.20;99.80;;;;;;5059294;28;20096;-74
2022/04/28 09:22:08;;;;;;;13.50;2.17;;;12.20;99.80;;;;;;5044483;28;20048;-75
2022/04/28 09:24:34;;;;;;;10.65;2.85;;;12.30;99.60;;;;;;5049128;28;20047;-75
2022/04/28 09:27:00;;;;;;;15.68;2.95;;;12.30;99.50;;;;;;5059391;28;20067;-74
2022/04/28 09:29:36;;;;;;;10.30;2.35;;;12.30;99.20;;;;;;5065947;28;20094;-75
2022/04/28 09:32:09;;;;;;;13.50;2.60;;;12.30;99.20;;;;;;5058122;28;20055;-73
2022/04/28 09:34:43;;;;;;;10.45;2.67;;;12.30;99.20;;;;;;5030583;28;20045;-72
2022/04/28 09:37:14;;;;;;;11.05;2.20;;;12.30;99.40;;;;;;5037771;28;20483;-72
2022/04/28 09:42:31;;;;;;;13.57;2.40;;;12.30;99.00;;;;;;5049217;28;20082;-72
2022/04/28 09:44:58;;;;;;;14.75;3.30;;;12.30;99.10;;;;;;5053650;28;20044;-73
2022/04/28 09:47:26;;;;;;;10.32;2.25;;;12.30;99.20;;;;;;5056699;28;20136;-73
2022/04/28 09:49:53;;;;;;;14.88;3.08;;;12.30;99.10;;;;;;5064038;28;20047;-70
2022/04/28 09:52:25;;;;;;;18.23;2.25;;;12.20;98.90;;;;;;5036184;28;20482;-81
2022/04/28 09:54:56;;;;;;;15.40;1.90;;;12.30;98.80;;;;;;5032321;28;20045;-73
2022/04/28 09:57:22;;;;;;;11.07;1.92;;;12.20;98.70;;;;;;5032812;28;20076;-74
2022/04/28 09:59:58;;;;;;;10.73;2.03;;;12.20;98.80;;;;;;5063192;28;20051;-71
2022/04/28 10:02:27;;;;;;;7.53;2.40;;;12.20;98.90;;;;;;5040757;28;20052;-74
2022/04/28 10:04:54;;;;;;;10.60;2.33;;;12.20;98.80;;;;;;5044260;28;20344;-73
2022/04/28 10:07:21;;;;;;;11.85;2.40;;;12.30;98.80;;;;;;5037250;28;20036;-76
2022/04/28 10:09:49;;;;;;;15.13;2.22;;;12.30;98.70;;;;;;5056819;28;20041;-75
2022/04/28 10:12:19;;;;;;;11.48;2.78;;;12.30;99.00;;;;;;5037178;28;20041;-83
2022/04/28 10:14:47;;;;;;;20.08;2.22;;;12.30;98.60;;;;;;5041344;28;20135;-73
2022/04/28 10:17:21;;;;;;;14.57;2.28;;;12.40;98.70;;;;;;5050056;28;20109;-80
2022/04/28 10:20:03;;;;;;;11.82;1.95;;;12.40;98.50;;;;;;5064753;28;20116;-78
2022/04/28 10:22:36;;;;;;;13.77;2.33;;;12.40;98.50;;;;;;5041436;28;20112;-78
2022/04/28 10:33:25;;;;;;;14.15;2.58;;;12.30;98.50;;;;;;5040044;28;19920;-77
2022/04/28 10:35:51;;;;;;;8.77;2.33;;;12.40;98.60;;;;;;5057840;28;20052;-78
2022/04/28 10:38:26;;;;;;;10.45;2.25;;;12.40;98.30;;;;;;5053872;28;20443;-76
2022/04/28 10:41:04;;;;;;;9.82;2.10;;;12.40;98.10;;;;;;5037449;28;20141;-76
2022/04/28 10:43:33;;;;;;;12.75;2.13;;;12.50;98.20;;;;;;5050929;28;20033;-77
2022/04/28 10:46:28;;;;;;;16.77;2.28;;;12.50;98.10;;;;;;5057949;28;20041;-75
2022/04/28 10:49:05;;;;;;;12.32;2.10;;;12.60;97.90;;;;;;5033014;28;20139;-76
2022/04/28 10:51:32;;;;;;;10.45;2.45;;;12.60;97.80;;;;;;5060441;28;20052;-78
2022/04/28 10:54:09;;;;;;;18.83;2.20;;;12.70;97.90;;;;;;5051789;28;20037;-76
2022/04/28 10:56:56;;;;;;;10.85;2.22;;;12.70;97.60;;;;;;5051095;28;20052;-76
2022/04/28 10:59:32;;;;;;;9.32;2.75;;;12.70;97.50;;;;;;5057936;28;20120;-77
2022/04/28 11:02:10;;;;;;;10.88;1.92;;;12.70;97.30;;;;;;5030786;28;20144;-76
2022/04/28 11:04:36;;;;;;;10.77;2.03;;;12.70;97.30;;;;;;5041000;28;20060;-76
2022/04/28 11:07:07;;;;;;;8.27;1.80;;;12.80;97.30;;;;;;5030463;28;20041;-73
2022/04/28 11:09:34;;;;;;;;;;;12.80;96.90;;;;;;5057783;28;20059;-73
2022/04/28 11:12:18;;;;;;;10.25;2.28;;;12.80;97.30;;;;;;5032552;28;20250;-73
2022/04/28 11:14:59;;;;;;;10.23;2.30;;;12.90;97.20;;;;;;5056800;28;20572;-74
2022/04/28 11:17:28;;;;;;;15.52;2.15;;;12.90;96.70;;;;;;5057126;28;20075;-73
2022/04/28 11:19:54;;;;;;;16.35;2.03;;;12.80;96.80;;;;;;5055911;28;20495;-73
2022/04/28 11:22:20;;;;;;;10.63;2.63;;;12.90;96.80;;;;;;5063799;28;20063;-74
2022/04/28 11:24:47;;;;;;;10.90;2.13;;;12.90;96.60;;;;;;5036338;28;20620;-75
2022/04/28 11:27:20;;;;;;;13.10;1.75;;;12.80;96.40;;;;;;5035535;28;20055;-74
2022/04/28 11:29:49;;;;;;;6.05;1.70;;;12.80;96.50;;;;;;5030678;28;20455;-74
2022/04/28 11:32:18;;;;;;;9.95;2.33;;;12.80;96.80;;;;;;5053419;28;20531;-74
2022/04/28 11:34:45;;;;;;;16.20;2.58;;;12.80;96.80;;;;;;5063201;28;20048;-73
2022/04/28 11:37:19;;;;;;;8.68;2.10;;;12.90;96.60;;;;;;5045249;28;20103;-74
2022/04/28 11:39:49;;;;;;;8.80;1.80;;;12.90;96.40;;;;;;5062797;28;20037;-74
2022/04/28 11:42:19;;;;;;;22.75;4.70;;;12.90;96.30;;;;;;5052403;28;20051;-74
2022/04/28 11:44:52;;;;;;;9.05;4.03;;;12.90;96.10;;;;;;5063180;28;20136;-74
2022/04/28 11:47:19;;;;;;;11.07;2.17;;;13.00;96.30;;;;;;5053142;28;20472;-74
2022/04/28 11:49:45;;;;;;;7.00;1.55;;;13.10;96.30;;;;;;5055248;28;20033;-74
2022/04/28 11:52:25;;;;;;;16.70;3.15;;;13.10;95.90;;;;;;5031423;28;20059;-73
2022/04/28 11:54:58;;;;;;;10.65;2.45;;;13.10;95.90;;;;;;5036479;28;20056;-74
2022/04/28 11:57:24;;;;;;;6.97;1.80;;;13.20;95.70;;;;;;5061871;28;20536;-74
2022/04/28 11:59:51;;;;;;;11.07;2.45;;;13.20;95.60;;;;;;5038194;28;20447;-74
2022/04/28 12:02:28;;;;;;;14.43;2.97;;;13.30;95.70;;;;;;5057923;28;20049;-73
2022/04/28 12:04:55;;;;;;;8.40;1.95;;;13.40;95.70;;;;;;5033740;28;20056;-73
2022/04/28 12:07:22;;;;;;;10.88;2.58;;;13.50;95.70;;;;;;5057419;28;20051;-73
2022/04/28 12:15:26;;;;;;;12.30;2.35;;;13.60;95.20;;;;;;5034387;28;20047;-74
2022/04/28 12:20:58;;;;;;;13.30;1.80;;;13.70;95.10;;;;;;5055752;28;20059;-74
2022/04/28 12:23:41;;;;;;;10.05;2.05;;;13.80;94.80;;;;;;5056597;28;20127;-74
2022/04/28 12:26:08;;;;;;;8.80;1.90;;;13.90;94.10;;;;;;5036350;28;20197;-73
2022/04/28 12:28:42;;;;;;;8.45;1.42;;;13.80;94.00;;;;;;5028636;28;20061;-73
2022/04/28 12:31:11;;;;;;;5.80;1.45;;;13.80;93.90;;;;;;5046427;28;20098;-73
2022/04/28 12:33:38;;;;;;;8.02;2.58;;;13.60;94.00;;;;;;5030206;28;20456;-73
2022/04/28 12:36:06;;;;;;;8.98;1.95;;;13.60;93.80;;;;;;5060256;28;20040;-72
2022/04/28 12:38:35;;;;;;;9.05;1.95;;;13.40;94.10;;;;;;5054471;28;20044;-72
2022/04/28 12:41:24;;;;;;;11.23;2.05;;;13.50;94.30;;;;;;5061334;28;20037;-74
2022/04/28 12:43:52;;;;;;;8.38;1.67;;;13.50;94.40;;;;;;5067654;28;20123;-73
2022/04/28 12:46:38;;;;;;;16.33;2.78;;;13.50;94.10;;;;;;5034165;28;20053;-73
2022/04/28 12:49:08;;;;;;;39.15;3.97;;;13.50;94.00;;;;;;5056062;28;20037;-74
2022/04/28 12:51:42;;;;;;;30.23;2.67;;;13.70;94.10;;;;;;5060412;28;20089;-74
2022/04/28 12:54:13;;;;;;;56.47;4.20;;;13.60;94.20;;;;;;5035245;28;20041;-74
2022/04/28 12:56:43;;;;;;;28.42;2.25;;;13.60;94.30;;;;;;5062784;28;20445;-73
2022/04/28 12:59:10;;;;;;;24.48;2.72;;;13.80;94.40;;;;;;5052878;28;20033;-73
2022/04/28 13:01:38;;;;;;;31.92;3.20;;;13.90;94.20;;;;;;5061363;28;20040;-73
2022/04/28 13:04:17;;;;;;;16.23;2.08;;;14.10;94.10;;;;;;5051032;28;20056;-74
2022/04/28 13:06:44;;;;;;;14.68;1.98;;;14.20;93.40;;;;;;5036072;28;20110;-72
2022/04/28 13:09:10;;;;;;;29.25;2.25;;;14.20;93.30;;;;;;5063277;28;20109;-72
2022/04/28 13:11:39;;;;;;;11.93;1.55;;;14.20;92.90;;;;;;5037994;28;20091;-78
2022/04/28 13:14:08;;;;;;;10.88;1.95;;;14.20;93.00;;;;;;5051017;28;20526;-79
2022/04/28 13:16:35;;;;;;;11.48;1.40;;;14.30;93.20;;;;;;5073643;28;20044;-80
2022/04/28 13:19:01;;;;;;;9.25;1.45;;;14.50;92.80;;;;;;5055769;28;20048;-79
2022/04/28 13:21:27;;;;;;;17.70;2.13;;;14.60;92.50;;;;;;5054030;28;20472;-80
2022/04/28 13:23:54;;;;;;;9.02;1.52;;;14.60;92.60;;;;;;5051554;28;20048;-81
2022/04/28 13:26:21;;;;;;;12.57;1.85;;;14.70;91.60;;;;;;5052135;28;20052;-74